sensor_id;sensor_type;location;lat;lon;timestamp;P1;durP1;ratioP1;P2;durP2;ratioP2
70970;SDS011;58632;51.718;19.446;2023-07-24T00:01:18;9.20;;;3.60;;
70970;SDS011;58632;51.718;19.446;2023-07-24T00:03:44;8.40;;;4.00;;
70970;SDS011;58632;51.718;19.446;2023-07-24T00:06:10;11.30;;;4.20;;
70970;SDS011;58632;51.718;19.446;2023-07-24T00:08:37;10.00;;;4.20;;
70970;SDS011;58632;51.718;19.446;2023-07-24T00:13:30;7.30;;;4.10;;
70970;SDS011;58632;51.718;19.446;2023-07-24T00:15:58;10.50;;;4.10;;
70970;SDS011;58632;51.718;19.446;2023-07-24T00:18:24;12.30;;;4.30;;
70970;SDS011;58632;51.718;19.446;2023-07-24T00:20:49;9.50;;;4.50;;
70970;SDS011;58632;51.718;19.446;2023-07-24T00:23:15;7.20;;;4.10;;
70970;SDS011;58632;51.718;19.446;2023-07-24T00:25:40;10.10;;;4.40;;
70970;SDS011;58632;51.718;19.446;2023-07-24T00:28:05;10.60;;;4.10;;
70970;SDS011;58632;51.718;19.446;2023-07-24T00:30:31;7.40;;;4.50;;
70970;SDS011;58632;51.718;19.446;2023-07-24T00:32:56;16.90;;;5.10;;
70970;SDS011;58632;51.718;19.446;2023-07-24T00:35:22;10.60;;;4.20;;
70970;SDS011;58632;51.718;19.446;2023-07-24T00:37:48;10.10;;;4.60;;
70970;SDS011;58632;51.718;19.446;2023-07-24T00:40:13;13.90;;;5.30;;
70970;SDS011;58632;51.718;19.446;2023-07-24T00:42:39;11.10;;;4.50;;
70970;SDS011;58632;51.718;19.446;2023-07-24T00:45:04;9.40;;;4.10;;
70970;SDS011;58632;51.718;19.446;2023-07-24T00:47:31;14.90;;;4.60;;
70970;SDS011;58632;51.718;19.446;2023-07-24T00:49:57;7.00;;;4.40;;
70970;SDS011;58632;51.718;19.446;2023-07-24T00:52:23;8.70;;;4.50;;
70970;SDS011;58632;51.718;19.446;2023-07-24T00:54:49;11.40;;;4.20;;
70970;SDS011;58632;51.718;19.446;2023-07-24T00:57:17;15.20;;;4.60;;
70970;SDS011;58632;51.718;19.446;2023-07-24T00:59:43;12.70;;;4.80;;
70970;SDS011;58632;51.718;19.446;2023-07-24T01:02:10;13.00;;;4.80;;
70970;SDS011;58632;51.718;19.446;2023-07-24T01:04:36;15.90;;;4.70;;
70970;SDS011;58632;51.718;19.446;2023-07-24T01:07:02;9.10;;;4.30;;
70970;SDS011;58632;51.718;19.446;2023-07-24T01:09:28;8.20;;;4.00;;
70970;SDS011;58632;51.718;19.446;2023-07-24T01:11:58;7.40;;;4.30;;
70970;SDS011;58632;51.718;19.446;2023-07-24T01:14:34;8.30;;;3.90;;
70970;SDS011;58632;51.718;19.446;2023-07-24T01:17:07;6.90;;;3.90;;
70970;SDS011;58632;51.718;19.446;2023-07-24T01:19:44;5.20;;;3.70;;
70970;SDS011;58632;51.718;19.446;2023-07-24T01:27:33;7.60;;;4.20;;
70970;SDS011;58632;51.718;19.446;2023-07-24T01:29:58;7.10;;;4.00;;
70970;SDS011;58632;51.718;19.446;2023-07-24T01:32:24;6.70;;;3.90;;
70970;SDS011;58632;51.718;19.446;2023-07-24T01:34:50;6.10;;;3.80;;
70970;SDS011;58632;51.718;19.446;2023-07-24T01:37:20;8.00;;;3.90;;
70970;SDS011;58632;51.718;19.446;2023-07-24T01:39:47;7.00;;;3.80;;
70970;SDS011;58632;51.718;19.446;2023-07-24T01:42:13;8.40;;;3.90;;
70970;SDS011;58632;51.718;19.446;2023-07-24T01:44:50;6.10;;;3.60;;
70970;SDS011;58632;51.718;19.446;2023-07-24T01:47:18;7.80;;;3.60;;
70970;SDS011;58632;51.718;19.446;2023-07-24T01:49:44;6.80;;;3.90;;
70970;SDS011;58632;51.718;19.446;2023-07-24T01:52:10;5.30;;;3.70;;
70970;SDS011;58632;51.718;19.446;2023-07-24T01:54:36;6.60;;;3.50;;
70970;SDS011;58632;51.718;19.446;2023-07-24T01:57:02;6.50;;;3.80;;
70970;SDS011;58632;51.718;19.446;2023-07-24T01:59:28;4.90;;;3.50;;
70970;SDS011;58632;51.718;19.446;2023-07-24T02:01:53;7.20;;;3.60;;
70970;SDS011;58632;51.718;19.446;2023-07-24T02:04:19;7.70;;;4.00;;
70970;SDS011;58632;51.718;19.446;2023-07-24T02:06:50;6.40;;;3.80;;
70970;SDS011;58632;51.718;19.446;2023-07-24T02:09:18;6.70;;;4.00;;
70970;SDS011;58632;51.718;19.446;2023-07-24T02:11:44;7.00;;;4.10;;
70970;SDS011;58632;51.718;19.446;2023-07-24T02:14:11;6.80;;;4.00;;
70970;SDS011;58632;51.718;19.446;2023-07-24T02:16:38;11.10;;;3.80;;
70970;SDS011;58632;51.718;19.446;2023-07-24T02:19:03;8.70;;;3.80;;
70970;SDS011;58632;51.718;19.446;2023-07-24T02:21:31;5.80;;;3.70;;
70970;SDS011;58632;51.718;19.446;2023-07-24T02:23:57;6.60;;;3.80;;
70970;SDS011;58632;51.718;19.446;2023-07-24T02:26:23;6.80;;;3.50;;
70970;SDS011;58632;51.718;19.446;2023-07-24T02:28:49;7.60;;;3.70;;
70970;SDS011;58632;51.718;19.446;2023-07-24T02:31:14;5.30;;;4.10;;
70970;SDS011;58632;51.718;19.446;2023-07-24T02:33:43;7.20;;;3.90;;
70970;SDS011;58632;51.718;19.446;2023-07-24T02:36:08;6.20;;;4.00;;
70970;SDS011;58632;51.718;19.446;2023-07-24T02:38:34;6.70;;;4.00;;
70970;SDS011;58632;51.718;19.446;2023-07-24T02:41:00;6.80;;;3.90;;
70970;SDS011;58632;51.718;19.446;2023-07-24T02:43:25;8.30;;;4.00;;
70970;SDS011;58632;51.718;19.446;2023-07-24T02:45:53;7.20;;;3.90;;
70970;SDS011;58632;51.718;19.446;2023-07-24T02:48:19;7.90;;;4.20;;
70970;SDS011;58632;51.718;19.446;2023-07-24T02:50:47;6.10;;;3.90;;
70970;SDS011;58632;51.718;19.446;2023-07-24T02:53:13;9.10;;;4.40;;
70970;SDS011;58632;51.718;19.446;2023-07-24T02:55:41;5.40;;;3.80;;
70970;SDS011;58632;51.718;19.446;2023-07-24T02:58:08;8.40;;;4.50;;
70970;SDS011;58632;51.718;19.446;2023-07-24T03:00:36;7.60;;;4.20;;
70970;SDS011;58632;51.718;19.446;2023-07-24T03:03:02;6.30;;;4.20;;
70970;SDS011;58632;51.718;19.446;2023-07-24T03:05:28;6.90;;;4.40;;
70970;SDS011;58632;51.718;19.446;2023-07-24T03:07:54;4.60;;;3.70;;
70970;SDS011;58632;51.718;19.446;2023-07-24T03:10:22;5.60;;;4.40;;
70970;SDS011;58632;51.718;19.446;2023-07-24T03:12:48;6.00;;;4.00;;
70970;SDS011;58632;51.718;19.446;2023-07-24T03:15:14;7.00;;;4.10;;
70970;SDS011;58632;51.718;19.446;2023-07-24T03:17:40;6.60;;;4.10;;
70970;SDS011;58632;51.718;19.446;2023-07-24T03:20:23;7.00;;;3.90;;
70970;SDS011;58632;51.718;19.446;2023-07-24T03:22:49;6.80;;;3.70;;
70970;SDS011;58632;51.718;19.446;2023-07-24T03:25:15;9.00;;;4.20;;
70970;SDS011;58632;51.718;19.446;2023-07-24T03:27:40;5.50;;;3.80;;
70970;SDS011;58632;51.718;19.446;2023-07-24T03:30:09;5.80;;;3.90;;
70970;SDS011;58632;51.718;19.446;2023-07-24T03:32:36;7.30;;;3.90;;
70970;SDS011;58632;51.718;19.446;2023-07-24T03:35:02;7.00;;;3.50;;
70970;SDS011;58632;51.718;19.446;2023-07-24T03:37:28;8.10;;;4.20;;
70970;SDS011;58632;51.718;19.446;2023-07-24T03:39:53;8.70;;;4.30;;
70970;SDS011;58632;51.718;19.446;2023-07-24T03:42:25;7.20;;;4.40;;
70970;SDS011;58632;51.718;19.446;2023-07-24T03:44:52;7.70;;;4.00;;
70970;SDS011;58632;51.718;19.446;2023-07-24T03:47:18;7.20;;;4.30;;
70970;SDS011;58632;51.718;19.446;2023-07-24T03:49:45;7.50;;;3.50;;
70970;SDS011;58632;51.718;19.446;2023-07-24T03:52:11;11.50;;;4.20;;
70970;SDS011;58632;51.718;19.446;2023-07-24T03:54:37;6.70;;;4.30;;
70970;SDS011;58632;51.718;19.446;2023-07-24T03:57:05;7.30;;;4.30;;
70970;SDS011;58632;51.718;19.446;2023-07-24T03:59:30;6.90;;;3.90;;
70970;SDS011;58632;51.718;19.446;2023-07-24T04:01:57;6.50;;;4.10;;
70970;SDS011;58632;51.718;19.446;2023-07-24T04:04:22;6.70;;;4.60;;
70970;SDS011;58632;51.718;19.446;2023-07-24T04:06:50;8.20;;;4.50;;
70970;SDS011;58632;51.718;19.446;2023-07-24T04:09:15;8.00;;;4.40;;
70970;SDS011;58632;51.718;19.446;2023-07-24T04:11:42;8.40;;;4.30;;
70970;SDS011;58632;51.718;19.446;2023-07-24T04:14:10;7.50;;;4.30;;
70970;SDS011;58632;51.718;19.446;2023-07-24T04:16:36;6.60;;;4.30;;
70970;SDS011;58632;51.718;19.446;2023-07-24T04:19:01;7.10;;;4.50;;
70970;SDS011;58632;51.718;19.446;2023-07-24T04:21:27;8.00;;;4.10;;
70970;SDS011;58632;51.718;19.446;2023-07-24T04:23:53;6.10;;;3.90;;
70970;SDS011;58632;51.718;19.446;2023-07-24T04:26:18;6.10;;;4.10;;
70970;SDS011;58632;51.718;19.446;2023-07-24T04:28:44;6.00;;;4.10;;
70970;SDS011;58632;51.718;19.446;2023-07-24T04:31:12;7.50;;;3.80;;
70970;SDS011;58632;51.718;19.446;2023-07-24T04:33:38;8.30;;;4.40;;
70970;SDS011;58632;51.718;19.446;2023-07-24T04:38:30;6.50;;;3.90;;
70970;SDS011;58632;51.718;19.446;2023-07-24T04:41:00;6.50;;;4.10;;
70970;SDS011;58632;51.718;19.446;2023-07-24T04:43:27;7.30;;;4.00;;
70970;SDS011;58632;51.718;19.446;2023-07-24T04:45:55;6.30;;;4.20;;
70970;SDS011;58632;51.718;19.446;2023-07-24T04:48:20;7.20;;;4.30;;
70970;SDS011;58632;51.718;19.446;2023-07-24T04:50:46;6.30;;;4.10;;
70970;SDS011;58632;51.718;19.446;2023-07-24T04:53:12;7.00;;;4.10;;
70970;SDS011;58632;51.718;19.446;2023-07-24T04:55:37;5.10;;;3.50;;
70970;SDS011;58632;51.718;19.446;2023-07-24T04:58:03;7.70;;;3.70;;
70970;SDS011;58632;51.718;19.446;2023-07-24T05:00:29;9.50;;;4.40;;
70970;SDS011;58632;51.718;19.446;2023-07-24T05:02:54;12.60;;;4.90;;
70970;SDS011;58632;51.718;19.446;2023-07-24T05:05:19;9.60;;;4.20;;
70970;SDS011;58632;51.718;19.446;2023-07-24T05:07:45;8.70;;;4.00;;
70970;SDS011;58632;51.718;19.446;2023-07-24T05:10:11;7.40;;;4.00;;
70970;SDS011;58632;51.718;19.446;2023-07-24T05:12:40;7.40;;;4.00;;
70970;SDS011;58632;51.718;19.446;2023-07-24T05:15:08;10.20;;;4.60;;
70970;SDS011;58632;51.718;19.446;2023-07-24T05:17:35;7.70;;;4.20;;
70970;SDS011;58632;51.718;19.446;2023-07-24T05:20:00;10.40;;;4.30;;
70970;SDS011;58632;51.718;19.446;2023-07-24T05:22:26;9.10;;;4.10;;
70970;SDS011;58632;51.718;19.446;2023-07-24T05:24:51;7.90;;;4.30;;
70970;SDS011;58632;51.718;19.446;2023-07-24T05:27:17;7.30;;;4.30;;
70970;SDS011;58632;51.718;19.446;2023-07-24T05:29:42;10.10;;;4.20;;
70970;SDS011;58632;51.718;19.446;2023-07-24T05:32:10;7.20;;;3.50;;
70970;SDS011;58632;51.718;19.446;2023-07-24T05:34:36;9.80;;;4.00;;
70970;SDS011;58632;51.718;19.446;2023-07-24T05:37:05;7.30;;;4.10;;
70970;SDS011;58632;51.718;19.446;2023-07-24T05:39:33;9.10;;;3.60;;
70970;SDS011;58632;51.718;19.446;2023-07-24T05:41:58;6.90;;;3.60;;
70970;SDS011;58632;51.718;19.446;2023-07-24T05:44:24;8.60;;;4.20;;
70970;SDS011;58632;51.718;19.446;2023-07-24T05:46:52;11.70;;;3.60;;
70970;SDS011;58632;51.718;19.446;2023-07-24T05:49:17;8.10;;;4.30;;
70970;SDS011;58632;51.718;19.446;2023-07-24T05:51:43;11.00;;;4.10;;
70970;SDS011;58632;51.718;19.446;2023-07-24T05:54:08;8.30;;;3.20;;
70970;SDS011;58632;51.718;19.446;2023-07-24T05:56:34;9.80;;;3.40;;
70970;SDS011;58632;51.718;19.446;2023-07-24T05:59:00;6.40;;;3.20;;
70970;SDS011;58632;51.718;19.446;2023-07-24T06:01:25;8.40;;;3.20;;
70970;SDS011;58632;51.718;19.446;2023-07-24T06:03:51;6.70;;;3.40;;
70970;SDS011;58632;51.718;19.446;2023-07-24T06:06:16;5.40;;;2.80;;
70970;SDS011;58632;51.718;19.446;2023-07-24T06:08:42;4.20;;;2.60;;
70970;SDS011;58632;51.718;19.446;2023-07-24T06:11:07;5.00;;;2.60;;
70970;SDS011;58632;51.718;19.446;2023-07-24T06:13:33;12.10;;;3.10;;
70970;SDS011;58632;51.718;19.446;2023-07-24T06:15:58;8.50;;;2.60;;
70970;SDS011;58632;51.718;19.446;2023-07-24T06:18:24;6.60;;;2.80;;
70970;SDS011;58632;51.718;19.446;2023-07-24T06:20:53;4.50;;;2.90;;
70970;SDS011;58632;51.718;19.446;2023-07-24T06:23:19;5.50;;;2.90;;
70970;SDS011;58632;51.718;19.446;2023-07-24T06:30:35;6.50;;;3.10;;
70970;SDS011;58632;51.718;19.446;2023-07-24T06:33:03;6.40;;;2.50;;
70970;SDS011;58632;51.718;19.446;2023-07-24T06:35:28;5.40;;;2.50;;
70970;SDS011;58632;51.718;19.446;2023-07-24T06:40:19;8.90;;;2.30;;
70970;SDS011;58632;51.718;19.446;2023-07-24T06:42:45;4.40;;;2.10;;
70970;SDS011;58632;51.718;19.446;2023-07-24T06:45:10;5.10;;;2.40;;
70970;SDS011;58632;51.718;19.446;2023-07-24T06:47:36;6.40;;;2.30;;
70970;SDS011;58632;51.718;19.446;2023-07-24T06:50:02;3.80;;;2.30;;
70970;SDS011;58632;51.718;19.446;2023-07-24T06:52:28;4.60;;;2.30;;
70970;SDS011;58632;51.718;19.446;2023-07-24T06:54:56;6.50;;;2.60;;
70970;SDS011;58632;51.718;19.446;2023-07-24T06:57:23;6.80;;;2.50;;
70970;SDS011;58632;51.718;19.446;2023-07-24T06:59:49;3.80;;;2.10;;
70970;SDS011;58632;51.718;19.446;2023-07-24T07:07:06;3.80;;;2.10;;
70970;SDS011;58632;51.718;19.446;2023-07-24T07:11:57;4.90;;;2.10;;
70970;SDS011;58632;51.718;19.446;2023-07-24T07:14:23;3.80;;;2.20;;
70970;SDS011;58632;51.718;19.446;2023-07-24T07:16:49;3.50;;;2.10;;
70970;SDS011;58632;51.718;19.446;2023-07-24T07:19:14;4.10;;;2.00;;
70970;SDS011;58632;51.718;19.446;2023-07-24T07:21:40;5.10;;;2.30;;
70970;SDS011;58632;51.718;19.446;2023-07-24T07:24:05;3.50;;;2.20;;
70970;SDS011;58632;51.718;19.446;2023-07-24T07:26:31;5.10;;;2.20;;
70970;SDS011;58632;51.718;19.446;2023-07-24T07:28:57;4.80;;;2.40;;
70970;SDS011;58632;51.718;19.446;2023-07-24T07:31:22;4.00;;;1.80;;
70970;SDS011;58632;51.718;19.446;2023-07-24T07:33:48;4.70;;;2.00;;
70970;SDS011;58632;51.718;19.446;2023-07-24T07:36:13;3.90;;;2.20;;
70970;SDS011;58632;51.718;19.446;2023-07-24T07:38:39;3.80;;;2.20;;
70970;SDS011;58632;51.718;19.446;2023-07-24T07:41:05;6.10;;;2.20;;
70970;SDS011;58632;51.718;19.446;2023-07-24T07:43:31;5.00;;;2.30;;
70970;SDS011;58632;51.718;19.446;2023-07-24T07:45:57;3.30;;;2.40;;
70970;SDS011;58632;51.718;19.446;2023-07-24T07:48:24;3.60;;;2.20;;
70970;SDS011;58632;51.718;19.446;2023-07-24T07:50:50;4.30;;;2.30;;
70970;SDS011;58632;51.718;19.446;2023-07-24T07:53:16;3.60;;;2.20;;
70970;SDS011;58632;51.718;19.446;2023-07-24T07:55:42;3.80;;;2.30;;
70970;SDS011;58632;51.718;19.446;2023-07-24T07:58:07;3.30;;;2.30;;
70970;SDS011;58632;51.718;19.446;2023-07-24T08:00:33;4.00;;;2.20;;
70970;SDS011;58632;51.718;19.446;2023-07-24T08:02:59;6.40;;;2.60;;
70970;SDS011;58632;51.718;19.446;2023-07-24T08:05:25;3.80;;;2.10;;
70970;SDS011;58632;51.718;19.446;2023-07-24T08:07:50;5.20;;;2.40;;
70970;SDS011;58632;51.718;19.446;2023-07-24T08:10:16;4.40;;;2.50;;
70970;SDS011;58632;51.718;19.446;2023-07-24T08:12:42;4.30;;;2.10;;
70970;SDS011;58632;51.718;19.446;2023-07-24T08:17:33;4.90;;;2.30;;
70970;SDS011;58632;51.718;19.446;2023-07-24T08:19:59;4.00;;;2.20;;
70970;SDS011;58632;51.718;19.446;2023-07-24T08:22:24;6.40;;;3.90;;
70970;SDS011;58632;51.718;19.446;2023-07-24T08:24:50;9.10;;;5.60;;
70970;SDS011;58632;51.718;19.446;2023-07-24T08:27:16;8.70;;;4.10;;
70970;SDS011;58632;51.718;19.446;2023-07-24T08:29:42;11.20;;;7.60;;
70970;SDS011;58632;51.718;19.446;2023-07-24T08:32:08;7.50;;;5.10;;
70970;SDS011;58632;51.718;19.446;2023-07-24T08:34:33;6.50;;;4.30;;
70970;SDS011;58632;51.718;19.446;2023-07-24T08:36:59;6.00;;;3.60;;
70970;SDS011;58632;51.718;19.446;2023-07-24T08:39:25;6.00;;;2.80;;
70970;SDS011;58632;51.718;19.446;2023-07-24T08:41:51;7.90;;;3.30;;
70970;SDS011;58632;51.718;19.446;2023-07-24T08:44:19;7.20;;;3.30;;
70970;SDS011;58632;51.718;19.446;2023-07-24T08:46:46;7.60;;;3.60;;
70970;SDS011;58632;51.718;19.446;2023-07-24T08:49:12;7.40;;;4.30;;
70970;SDS011;58632;51.718;19.446;2023-07-24T08:51:39;6.40;;;3.30;;
70970;SDS011;58632;51.718;19.446;2023-07-24T08:54:06;4.80;;;2.50;;
70970;SDS011;58632;51.718;19.446;2023-07-24T08:56:33;6.00;;;2.60;;
70970;SDS011;58632;51.718;19.446;2023-07-24T08:59:05;6.90;;;2.90;;
70970;SDS011;58632;51.718;19.446;2023-07-24T09:01:31;4.30;;;2.60;;
70970;SDS011;58632;51.718;19.446;2023-07-24T09:03:57;7.70;;;2.90;;
70970;SDS011;58632;51.718;19.446;2023-07-24T09:06:23;4.90;;;2.70;;
70970;SDS011;58632;51.718;19.446;2023-07-24T09:08:53;3.90;;;2.50;;
70970;SDS011;58632;51.718;19.446;2023-07-24T09:11:19;6.70;;;3.10;;
70970;SDS011;58632;51.718;19.446;2023-07-24T09:13:45;6.20;;;3.30;;
70970;SDS011;58632;51.718;19.446;2023-07-24T09:16:26;7.60;;;2.90;;
70970;SDS011;58632;51.718;19.446;2023-07-24T09:18:52;6.30;;;3.20;;
70970;SDS011;58632;51.718;19.446;2023-07-24T09:21:29;6.60;;;3.00;;
70970;SDS011;58632;51.718;19.446;2023-07-24T09:23:56;8.50;;;3.10;;
70970;SDS011;58632;51.718;19.446;2023-07-24T09:26:24;8.90;;;2.90;;
70970;SDS011;58632;51.718;19.446;2023-07-24T09:28:53;5.60;;;3.00;;
70970;SDS011;58632;51.718;19.446;2023-07-24T09:31:20;4.60;;;3.10;;
70970;SDS011;58632;51.718;19.446;2023-07-24T09:33:49;9.20;;;2.90;;
70970;SDS011;58632;51.718;19.446;2023-07-24T09:36:15;5.80;;;3.20;;
70970;SDS011;58632;51.718;19.446;2023-07-24T09:41:06;4.50;;;2.90;;
70970;SDS011;58632;51.718;19.446;2023-07-24T09:43:33;6.60;;;2.90;;
70970;SDS011;58632;51.718;19.446;2023-07-24T09:46:03;4.10;;;2.80;;
70970;SDS011;58632;51.718;19.446;2023-07-24T09:48:30;3.90;;;3.20;;
70970;SDS011;58632;51.718;19.446;2023-07-24T09:50:58;7.30;;;3.50;;
70970;SDS011;58632;51.718;19.446;2023-07-24T09:53:32;5.00;;;3.00;;
70970;SDS011;58632;51.718;19.446;2023-07-24T09:56:02;5.00;;;3.40;;
70970;SDS011;58632;51.718;19.446;2023-07-24T09:58:30;7.10;;;3.10;;
70970;SDS011;58632;51.718;19.446;2023-07-24T10:00:58;3.70;;;2.80;;
70970;SDS011;58632;51.718;19.446;2023-07-24T10:03:25;5.10;;;3.40;;
70970;SDS011;58632;51.718;19.446;2023-07-24T10:05:52;4.20;;;3.30;;
70970;SDS011;58632;51.718;19.446;2023-07-24T10:10:44;9.00;;;3.60;;
70970;SDS011;58632;51.718;19.446;2023-07-24T10:13:10;8.50;;;3.60;;
70970;SDS011;58632;51.718;19.446;2023-07-24T10:15:43;7.10;;;3.30;;
70970;SDS011;58632;51.718;19.446;2023-07-24T10:18:14;4.50;;;3.20;;
70970;SDS011;58632;51.718;19.446;2023-07-24T10:20:43;4.80;;;3.40;;
70970;SDS011;58632;51.718;19.446;2023-07-24T10:23:09;6.50;;;3.50;;
70970;SDS011;58632;51.718;19.446;2023-07-24T10:25:37;7.00;;;3.70;;
70970;SDS011;58632;51.718;19.446;2023-07-24T10:28:09;5.30;;;3.30;;
70970;SDS011;58632;51.718;19.446;2023-07-24T10:30:37;5.20;;;3.50;;
70970;SDS011;58632;51.718;19.446;2023-07-24T10:33:07;11.20;;;3.60;;
70970;SDS011;58632;51.718;19.446;2023-07-24T10:35:36;10.00;;;3.60;;
70970;SDS011;58632;51.718;19.446;2023-07-24T10:38:03;7.40;;;3.10;;
70970;SDS011;58632;51.718;19.446;2023-07-24T10:42:59;6.10;;;3.50;;
70970;SDS011;58632;51.718;19.446;2023-07-24T10:45:47;4.60;;;3.10;;
70970;SDS011;58632;51.718;19.446;2023-07-24T10:48:14;6.50;;;3.50;;
70970;SDS011;58632;51.718;19.446;2023-07-24T10:50:44;5.70;;;3.00;;
70970;SDS011;58632;51.718;19.446;2023-07-24T10:53:14;4.20;;;3.30;;
70970;SDS011;58632;51.718;19.446;2023-07-24T10:55:42;6.30;;;3.50;;
70970;SDS011;58632;51.718;19.446;2023-07-24T10:58:08;6.20;;;3.50;;
70970;SDS011;58632;51.718;19.446;2023-07-24T11:02:59;4.60;;;3.00;;
70970;SDS011;58632;51.718;19.446;2023-07-24T11:05:28;4.40;;;3.00;;
70970;SDS011;58632;51.718;19.446;2023-07-24T11:07:54;6.70;;;3.40;;
70970;SDS011;58632;51.718;19.446;2023-07-24T11:10:21;5.50;;;3.30;;
70970;SDS011;58632;51.718;19.446;2023-07-24T11:12:50;3.90;;;3.10;;
70970;SDS011;58632;51.718;19.446;2023-07-24T11:15:23;4.20;;;3.30;;
70970;SDS011;58632;51.718;19.446;2023-07-24T11:17:51;4.30;;;3.20;;
70970;SDS011;58632;51.718;19.446;2023-07-24T11:20:17;8.60;;;3.10;;
70970;SDS011;58632;51.718;19.446;2023-07-24T11:22:43;6.60;;;3.50;;
70970;SDS011;58632;51.718;19.446;2023-07-24T11:25:12;7.80;;;3.70;;
70970;SDS011;58632;51.718;19.446;2023-07-24T11:27:41;6.20;;;3.30;;
70970;SDS011;58632;51.718;19.446;2023-07-24T11:30:12;6.80;;;3.10;;
70970;SDS011;58632;51.718;19.446;2023-07-24T11:35:10;5.60;;;3.20;;
70970;SDS011;58632;51.718;19.446;2023-07-24T11:40:02;6.60;;;3.30;;
70970;SDS011;58632;51.718;19.446;2023-07-24T11:42:39;6.10;;;3.00;;
70970;SDS011;58632;51.718;19.446;2023-07-24T11:45:06;6.10;;;3.20;;
70970;SDS011;58632;51.718;19.446;2023-07-24T11:47:44;6.70;;;3.40;;
70970;SDS011;58632;51.718;19.446;2023-07-24T11:50:11;4.30;;;2.80;;
70970;SDS011;58632;51.718;19.446;2023-07-24T11:52:41;5.00;;;3.20;;
70970;SDS011;58632;51.718;19.446;2023-07-24T11:55:09;4.50;;;3.10;;
70970;SDS011;58632;51.718;19.446;2023-07-24T11:57:37;4.20;;;2.90;;
70970;SDS011;58632;51.718;19.446;2023-07-24T12:00:03;5.10;;;3.40;;
70970;SDS011;58632;51.718;19.446;2023-07-24T12:02:32;5.10;;;3.20;;
70970;SDS011;58632;51.718;19.446;2023-07-24T12:05:01;8.10;;;3.30;;
70970;SDS011;58632;51.718;19.446;2023-07-24T12:07:28;5.40;;;3.40;;
70970;SDS011;58632;51.718;19.446;2023-07-24T12:10:04;5.90;;;3.40;;
70970;SDS011;58632;51.718;19.446;2023-07-24T12:12:46;5.30;;;3.50;;
70970;SDS011;58632;51.718;19.446;2023-07-24T12:15:14;5.20;;;3.80;;
70970;SDS011;58632;51.718;19.446;2023-07-24T12:17:40;6.50;;;3.20;;
70970;SDS011;58632;51.718;19.446;2023-07-24T12:20:07;6.90;;;3.40;;
70970;SDS011;58632;51.718;19.446;2023-07-24T12:22:35;5.80;;;3.80;;
70970;SDS011;58632;51.718;19.446;2023-07-24T12:25:01;4.80;;;3.50;;
70970;SDS011;58632;51.718;19.446;2023-07-24T12:27:28;5.00;;;3.50;;
70970;SDS011;58632;51.718;19.446;2023-07-24T12:29:53;6.30;;;3.50;;
70970;SDS011;58632;51.718;19.446;2023-07-24T12:32:20;8.00;;;3.70;;
70970;SDS011;58632;51.718;19.446;2023-07-24T12:34:48;8.30;;;3.70;;
70970;SDS011;58632;51.718;19.446;2023-07-24T12:37:15;8.10;;;4.00;;
70970;SDS011;58632;51.718;19.446;2023-07-24T12:39:41;6.20;;;3.40;;
70970;SDS011;58632;51.718;19.446;2023-07-24T12:42:06;5.40;;;3.70;;
70970;SDS011;58632;51.718;19.446;2023-07-24T12:44:33;5.10;;;4.20;;
70970;SDS011;58632;51.718;19.446;2023-07-24T12:46:59;5.70;;;4.10;;
70970;SDS011;58632;51.718;19.446;2023-07-24T12:49:25;7.80;;;4.10;;
70970;SDS011;58632;51.718;19.446;2023-07-24T12:51:51;8.20;;;4.00;;
70970;SDS011;58632;51.718;19.446;2023-07-24T12:54:17;5.80;;;4.10;;
70970;SDS011;58632;51.718;19.446;2023-07-24T12:56:45;7.40;;;4.50;;
70970;SDS011;58632;51.718;19.446;2023-07-24T12:59:15;6.60;;;4.20;;
70970;SDS011;58632;51.718;19.446;2023-07-24T13:01:41;6.60;;;4.00;;
70970;SDS011;58632;51.718;19.446;2023-07-24T13:04:07;5.20;;;3.90;;
70970;SDS011;58632;51.718;19.446;2023-07-24T13:06:37;6.20;;;4.20;;
70970;SDS011;58632;51.718;19.446;2023-07-24T13:09:03;7.30;;;4.50;;
70970;SDS011;58632;51.718;19.446;2023-07-24T13:11:29;8.80;;;5.10;;
70970;SDS011;58632;51.718;19.446;2023-07-24T13:13:55;5.50;;;4.50;;
70970;SDS011;58632;51.718;19.446;2023-07-24T13:16:21;8.20;;;4.90;;
70970;SDS011;58632;51.718;19.446;2023-07-24T13:21:12;5.50;;;4.50;;
70970;SDS011;58632;51.718;19.446;2023-07-24T13:23:39;5.50;;;4.20;;
70970;SDS011;58632;51.718;19.446;2023-07-24T13:26:05;7.50;;;4.50;;
70970;SDS011;58632;51.718;19.446;2023-07-24T13:28:30;6.90;;;4.60;;
70970;SDS011;58632;51.718;19.446;2023-07-24T13:30:56;6.50;;;4.70;;
70970;SDS011;58632;51.718;19.446;2023-07-24T13:35:47;6.80;;;4.70;;
70970;SDS011;58632;51.718;19.446;2023-07-24T13:38:13;8.80;;;4.90;;
70970;SDS011;58632;51.718;19.446;2023-07-24T13:40:42;9.00;;;4.90;;
70970;SDS011;58632;51.718;19.446;2023-07-24T13:43:07;10.40;;;4.80;;
70970;SDS011;58632;51.718;19.446;2023-07-24T13:45:33;6.50;;;4.70;;
70970;SDS011;58632;51.718;19.446;2023-07-24T13:47:58;7.20;;;4.60;;
70970;SDS011;58632;51.718;19.446;2023-07-24T13:50:24;7.40;;;4.70;;
70970;SDS011;58632;51.718;19.446;2023-07-24T13:52:49;7.00;;;4.60;;
70970;SDS011;58632;51.718;19.446;2023-07-24T13:55:17;7.30;;;4.90;;
70970;SDS011;58632;51.718;19.446;2023-07-24T13:57:43;7.50;;;4.90;;
70970;SDS011;58632;51.718;19.446;2023-07-24T14:00:09;7.10;;;4.40;;
70970;SDS011;58632;51.718;19.446;2023-07-24T14:02:34;7.20;;;5.00;;
70970;SDS011;58632;51.718;19.446;2023-07-24T14:05:00;6.20;;;4.80;;
70970;SDS011;58632;51.718;19.446;2023-07-24T14:09:51;8.30;;;5.00;;
70970;SDS011;58632;51.718;19.446;2023-07-24T14:14:42;8.40;;;4.30;;
70970;SDS011;58632;51.718;19.446;2023-07-24T14:17:08;6.60;;;4.50;;
70970;SDS011;58632;51.718;19.446;2023-07-24T14:19:33;9.60;;;5.10;;
70970;SDS011;58632;51.718;19.446;2023-07-24T14:21:59;7.10;;;5.00;;
70970;SDS011;58632;51.718;19.446;2023-07-24T14:24:25;7.30;;;5.30;;
70970;SDS011;58632;51.718;19.446;2023-07-24T14:26:50;6.00;;;4.70;;
70970;SDS011;58632;51.718;19.446;2023-07-24T14:29:15;7.90;;;5.40;;
70970;SDS011;58632;51.718;19.446;2023-07-24T14:31:46;11.20;;;5.20;;
70970;SDS011;58632;51.718;19.446;2023-07-24T14:36:38;7.00;;;5.10;;
70970;SDS011;58632;51.718;19.446;2023-07-24T14:39:04;8.10;;;5.00;;
70970;SDS011;58632;51.718;19.446;2023-07-24T14:41:30;6.90;;;5.10;;
70970;SDS011;58632;51.718;19.446;2023-07-24T14:43:56;8.20;;;5.30;;
70970;SDS011;58632;51.718;19.446;2023-07-24T14:48:47;7.40;;;5.30;;
70970;SDS011;58632;51.718;19.446;2023-07-24T14:51:14;10.60;;;5.80;;
70970;SDS011;58632;51.718;19.446;2023-07-24T14:56:06;8.10;;;5.30;;
70970;SDS011;58632;51.718;19.446;2023-07-24T15:00:57;9.90;;;5.40;;
70970;SDS011;58632;51.718;19.446;2023-07-24T15:03:23;8.10;;;5.60;;
70970;SDS011;58632;51.718;19.446;2023-07-24T15:08:14;8.20;;;6.20;;
70970;SDS011;58632;51.718;19.446;2023-07-24T15:10:39;8.50;;;5.80;;
70970;SDS011;58632;51.718;19.446;2023-07-24T15:13:05;8.80;;;5.40;;
70970;SDS011;58632;51.718;19.446;2023-07-24T15:15:31;13.00;;;5.90;;
70970;SDS011;58632;51.718;19.446;2023-07-24T15:17:58;12.10;;;6.10;;
70970;SDS011;58632;51.718;19.446;2023-07-24T15:20:24;9.50;;;6.30;;
70970;SDS011;58632;51.718;19.446;2023-07-24T15:22:52;7.60;;;5.90;;
70970;SDS011;58632;51.718;19.446;2023-07-24T15:25:23;8.20;;;5.60;;
70970;SDS011;58632;51.718;19.446;2023-07-24T15:27:48;10.70;;;6.00;;
70970;SDS011;58632;51.718;19.446;2023-07-24T15:30:14;7.20;;;5.40;;
70970;SDS011;58632;51.718;19.446;2023-07-24T15:32:39;11.00;;;5.80;;
70970;SDS011;58632;51.718;19.446;2023-07-24T15:35:05;6.80;;;5.60;;